sensor_id;sensor_type;location;lat;lon;timestamp;temperature;humidity
70074;DHT22;57445;51.058;3.698;2023-04-12T00:00:38;11.70;99.90
70074;DHT22;57445;51.058;3.698;2023-04-12T00:03:12;11.60;99.90
70074;DHT22;57445;51.058;3.698;2023-04-12T00:05:49;11.60;99.90
70074;DHT22;57445;51.058;3.698;2023-04-12T00:08:24;11.50;99.90
70074;DHT22;57445;51.058;3.698;2023-04-12T00:10:58;11.60;99.90
70074;DHT22;57445;51.058;3.698;2023-04-12T00:13:30;11.80;99.90
70074;DHT22;57445;51.058;3.698;2023-04-12T00:15:58;11.80;99.90
70074;DHT22;57445;51.058;3.698;2023-04-12T00:18:31;11.70;99.90
70074;DHT22;57445;51.058;3.698;2023-04-12T00:20:58;11.40;99.90
70074;DHT22;57445;51.058;3.698;2023-04-12T00:23:26;11.50;99.90
70074;DHT22;57445;51.058;3.698;2023-04-12T00:25:58;11.60;99.90
70074;DHT22;57445;51.058;3.698;2023-04-12T00:28:25;11.70;99.90
70074;DHT22;57445;51.058;3.698;2023-04-12T00:30:57;11.50;99.90
70074;DHT22;57445;51.058;3.698;2023-04-12T00:33:25;11.70;99.90
70074;DHT22;57445;51.058;3.698;2023-04-12T00:35:58;11.50;99.90
70074;DHT22;57445;51.058;3.698;2023-04-12T00:38:26;11.60;99.90
70074;DHT22;57445;51.058;3.698;2023-04-12T00:40:58;11.60;99.90
70074;DHT22;57445;51.058;3.698;2023-04-12T00:43:26;11.60;99.90
70074;DHT22;57445;51.058;3.698;2023-04-12T00:45:58;11.60;99.90
70074;DHT22;57445;51.058;3.698;2023-04-12T00:48:26;11.50;99.90
70074;DHT22;57445;51.058;3.698;2023-04-12T00:50:53;11.30;99.90
70074;DHT22;57445;51.058;3.698;2023-04-12T00:53:28;11.20;99.90
70074;DHT22;57445;51.058;3.698;2023-04-12T00:55:57;11.30;99.90
70074;DHT22;57445;51.058;3.698;2023-04-12T00:58:29;11.40;99.90
70074;DHT22;57445;51.058;3.698;2023-04-12T01:01:02;11.60;99.90
70074;DHT22;57445;51.058;3.698;2023-04-12T01:03:30;11.60;99.90
70074;DHT22;57445;51.058;3.698;2023-04-12T01:06:01;11.70;99.90
70074;DHT22;57445;51.058;3.698;2023-04-12T01:08:40;11.60;99.90
70074;DHT22;57445;51.058;3.698;2023-04-12T01:11:11;11.60;99.90
70074;DHT22;57445;51.058;3.698;2023-04-12T01:13:45;11.50;99.90
70074;DHT22;57445;51.058;3.698;2023-04-12T01:16:18;11.70;99.90
70074;DHT22;57445;51.058;3.698;2023-04-12T01:18:49;11.90;99.90
70074;DHT22;57445;51.058;3.698;2023-04-12T01:21:23;11.90;99.90
70074;DHT22;57445;51.058;3.698;2023-04-12T01:24:00;11.50;99.90
70074;DHT22;57445;51.058;3.698;2023-04-12T01:26:35;11.20;99.90
70074;DHT22;57445;51.058;3.698;2023-04-12T01:29:12;11.30;99.90
70074;DHT22;57445;51.058;3.698;2023-04-12T01:31:48;11.40;99.90
70074;DHT22;57445;51.058;3.698;2023-04-12T01:34:16;11.40;99.90
70074;DHT22;57445;51.058;3.698;2023-04-12T01:36:51;11.50;99.90
70074;DHT22;57445;51.058;3.698;2023-04-12T01:39:19;11.70;99.90
70074;DHT22;57445;51.058;3.698;2023-04-12T01:41:46;11.70;99.90
70074;DHT22;57445;51.058;3.698;2023-04-12T01:44:16;11.60;99.90
70074;DHT22;57445;51.058;3.698;2023-04-12T01:46:48;11.60;99.90
70074;DHT22;57445;51.058;3.698;2023-04-12T01:49:21;11.60;99.90
70074;DHT22;57445;51.058;3.698;2023-04-12T01:52:00;11.60;99.90
70074;DHT22;57445;51.058;3.698;2023-04-12T01:54:35;11.70;99.90
70074;DHT22;57445;51.058;3.698;2023-04-12T01:57:03;11.60;99.90
70074;DHT22;57445;51.058;3.698;2023-04-12T01:59:38;11.50;99.90
70074;DHT22;57445;51.058;3.698;2023-04-12T02:02:07;11.50;99.90
70074;DHT22;57445;51.058;3.698;2023-04-12T02:04:35;11.80;99.90
70074;DHT22;57445;51.058;3.698;2023-04-12T02:07:08;11.60;99.90
70074;DHT22;57445;51.058;3.698;2023-04-12T02:09:43;11.50;99.90
70074;DHT22;57445;51.058;3.698;2023-04-12T02:12:10;11.50;99.90
70074;DHT22;57445;51.058;3.698;2023-04-12T02:14:39;11.40;99.90
70074;DHT22;57445;51.058;3.698;2023-04-12T02:17:07;11.40;99.90
70074;DHT22;57445;51.058;3.698;2023-04-12T02:19:35;11.50;99.90
70074;DHT22;57445;51.058;3.698;2023-04-12T02:22:07;11.40;99.90
70074;DHT22;57445;51.058;3.698;2023-04-12T02:24:35;11.50;99.90
70074;DHT22;57445;51.058;3.698;2023-04-12T02:27:07;11.70;99.90
70074;DHT22;57445;51.058;3.698;2023-04-12T02:29:40;11.80;99.90
70074;DHT22;57445;51.058;3.698;2023-04-12T02:32:15;11.80;99.90
70074;DHT22;57445;51.058;3.698;2023-04-12T02:34:43;11.60;99.90
70074;DHT22;57445;51.058;3.698;2023-04-12T02:37:20;11.50;99.90
70074;DHT22;57445;51.058;3.698;2023-04-12T02:39:54;11.40;99.90
70074;DHT22;57445;51.058;3.698;2023-04-12T02:42:27;11.50;99.90
70074;DHT22;57445;51.058;3.698;2023-04-12T02:44:57;11.40;99.90
70074;DHT22;57445;51.058;3.698;2023-04-12T02:47:24;11.50;99.90
70074;DHT22;57445;51.058;3.698;2023-04-12T02:49:54;11.60;99.90
70074;DHT22;57445;51.058;3.698;2023-04-12T02:52:22;11.90;99.90
70074;DHT22;57445;51.058;3.698;2023-04-12T02:54:49;12.10;99.90
70074;DHT22;57445;51.058;3.698;2023-04-12T02:57:22;12.00;99.90
70074;DHT22;57445;51.058;3.698;2023-04-12T02:59:54;11.80;99.90
70074;DHT22;57445;51.058;3.698;2023-04-12T03:02:23;11.70;99.90
70074;DHT22;57445;51.058;3.698;2023-04-12T03:04:53;11.60;99.90
70074;DHT22;57445;51.058;3.698;2023-04-12T03:07:26;11.70;99.90
70074;DHT22;57445;51.058;3.698;2023-04-12T03:09:55;11.50;99.90
70074;DHT22;57445;51.058;3.698;2023-04-12T03:12:27;11.70;99.90
70074;DHT22;57445;51.058;3.698;2023-04-12T03:14:55;11.50;99.90
70074;DHT22;57445;51.058;3.698;2023-04-12T03:17:28;11.50;99.90
70074;DHT22;57445;51.058;3.698;2023-04-12T03:20:03;11.60;99.90
70074;DHT22;57445;51.058;3.698;2023-04-12T03:22:35;11.60;99.90
70074;DHT22;57445;51.058;3.698;2023-04-12T03:25:02;11.80;99.90
70074;DHT22;57445;51.058;3.698;2023-04-12T03:27:35;11.90;99.90
70074;DHT22;57445;51.058;3.698;2023-04-12T03:30:07;12.00;99.90
70074;DHT22;57445;51.058;3.698;2023-04-12T03:32:44;11.70;99.90
70074;DHT22;57445;51.058;3.698;2023-04-12T03:35:12;11.70;99.90
70074;DHT22;57445;51.058;3.698;2023-04-12T03:37:44;11.80;99.90
70074;DHT22;57445;51.058;3.698;2023-04-12T03:40:15;11.90;99.90
70074;DHT22;57445;51.058;3.698;2023-04-12T03:42:43;11.90;99.90
70074;DHT22;57445;51.058;3.698;2023-04-12T03:45:15;11.60;99.90
70074;DHT22;57445;51.058;3.698;2023-04-12T03:47:51;11.60;99.90
70074;DHT22;57445;51.058;3.698;2023-04-12T03:50:20;11.80;99.90
70074;DHT22;57445;51.058;3.698;2023-04-12T03:52:48;11.80;99.90
70074;DHT22;57445;51.058;3.698;2023-04-12T03:55:20;11.90;99.90
70074;DHT22;57445;51.058;3.698;2023-04-12T03:57:48;12.00;99.90
70074;DHT22;57445;51.058;3.698;2023-04-12T04:00:16;12.10;99.90
70074;DHT22;57445;51.058;3.698;2023-04-12T04:02:48;11.70;99.90
70074;DHT22;57445;51.058;3.698;2023-04-12T04:05:17;11.50;99.90
70074;DHT22;57445;51.058;3.698;2023-04-12T04:07:44;11.20;99.90
70074;DHT22;57445;51.058;3.698;2023-04-12T04:10:15;11.10;99.90
70074;DHT22;57445;51.058;3.698;2023-04-12T04:12:47;11.00;99.90
70074;DHT22;57445;51.058;3.698;2023-04-12T04:15:19;11.10;99.90
70074;DHT22;57445;51.058;3.698;2023-04-12T04:17:49;10.90;99.90
70074;DHT22;57445;51.058;3.698;2023-04-12T04:20:23;10.90;99.90
70074;DHT22;57445;51.058;3.698;2023-04-12T04:22:55;11.10;99.90
70074;DHT22;57445;51.058;3.698;2023-04-12T04:25:27;11.20;99.90
70074;DHT22;57445;51.058;3.698;2023-04-12T04:28:01;11.30;99.90
70074;DHT22;57445;51.058;3.698;2023-04-12T04:30:29;11.20;99.90
70074;DHT22;57445;51.058;3.698;2023-04-12T04:33:03;11.10;99.90
70074;DHT22;57445;51.058;3.698;2023-04-12T04:35:39;11.10;99.90
70074;DHT22;57445;51.058;3.698;2023-04-12T04:38:07;11.10;99.90
70074;DHT22;57445;51.058;3.698;2023-04-12T04:40:39;11.10;99.90
70074;DHT22;57445;51.058;3.698;2023-04-12T04:43:07;11.10;99.90
70074;DHT22;57445;51.058;3.698;2023-04-12T04:45:34;11.00;99.90
70074;DHT22;57445;51.058;3.698;2023-04-12T04:48:06;11.20;99.90
70074;DHT22;57445;51.058;3.698;2023-04-12T04:50:34;11.20;99.90
70074;DHT22;57445;51.058;3.698;2023-04-12T04:53:07;11.20;99.90
70074;DHT22;57445;51.058;3.698;2023-04-12T04:55:40;11.20;99.90
70074;DHT22;57445;51.058;3.698;2023-04-12T04:58:08;11.10;99.90
70074;DHT22;57445;51.058;3.698;2023-04-12T05:00:35;11.20;99.90
70074;DHT22;57445;51.058;3.698;2023-04-12T05:03:03;11.30;99.90
70074;DHT22;57445;51.058;3.698;2023-04-12T05:05:36;11.20;99.90
70074;DHT22;57445;51.058;3.698;2023-04-12T05:08:10;11.20;99.90
70074;DHT22;57445;51.058;3.698;2023-04-12T05:10:42;11.30;99.90
70074;DHT22;57445;51.058;3.698;2023-04-12T05:13:10;11.20;99.90
70074;DHT22;57445;51.058;3.698;2023-04-12T05:15:39;11.30;99.90
70074;DHT22;57445;51.058;3.698;2023-04-12T05:18:06;11.10;99.90
70074;DHT22;57445;51.058;3.698;2023-04-12T05:20:39;11.10;99.90
70074;DHT22;57445;51.058;3.698;2023-04-12T05:25:45;10.90;99.90
70074;DHT22;57445;51.058;3.698;2023-04-12T05:28:19;10.70;99.90
70074;DHT22;57445;51.058;3.698;2023-04-12T05:30:52;11.00;99.90
70074;DHT22;57445;51.058;3.698;2023-04-12T05:33:21;10.90;99.90
70074;DHT22;57445;51.058;3.698;2023-04-12T05:35:49;11.00;99.90
70074;DHT22;57445;51.058;3.698;2023-04-12T05:38:21;11.00;99.90
70074;DHT22;57445;51.058;3.698;2023-04-12T05:40:53;10.90;99.90
70074;DHT22;57445;51.058;3.698;2023-04-12T05:43:22;11.00;99.90
70074;DHT22;57445;51.058;3.698;2023-04-12T05:45:50;10.90;99.90
70074;DHT22;57445;51.058;3.698;2023-04-12T05:48:22;10.90;99.90
70074;DHT22;57445;51.058;3.698;2023-04-12T05:50:52;11.10;99.90
70074;DHT22;57445;51.058;3.698;2023-04-12T05:53:19;10.90;99.90
70074;DHT22;57445;51.058;3.698;2023-04-12T05:55:47;10.90;99.90
70074;DHT22;57445;51.058;3.698;2023-04-12T05:58:20;10.90;99.90
70074;DHT22;57445;51.058;3.698;2023-04-12T06:00:53;11.00;99.90
70074;DHT22;57445;51.058;3.698;2023-04-12T06:03:26;11.10;99.90
70074;DHT22;57445;51.058;3.698;2023-04-12T06:05:55;11.10;99.90
70074;DHT22;57445;51.058;3.698;2023-04-12T06:08:22;11.30;99.90
70074;DHT22;57445;51.058;3.698;2023-04-12T06:10:56;11.30;99.90
70074;DHT22;57445;51.058;3.698;2023-04-12T06:13:25;11.10;99.90
70074;DHT22;57445;51.058;3.698;2023-04-12T06:15:57;11.30;99.90
70074;DHT22;57445;51.058;3.698;2023-04-12T06:18:24;11.40;99.90
70074;DHT22;57445;51.058;3.698;2023-04-12T06:20:52;11.60;99.90
70074;DHT22;57445;51.058;3.698;2023-04-12T06:23:19;11.80;99.90
70074;DHT22;57445;51.058;3.698;2023-04-12T06:25:47;12.00;99.90
70074;DHT22;57445;51.058;3.698;2023-04-12T06:28:15;12.40;99.90
70074;DHT22;57445;51.058;3.698;2023-04-12T06:30:48;12.50;99.90
70074;DHT22;57445;51.058;3.698;2023-04-12T06:33:20;12.70;99.90
70074;DHT22;57445;51.058;3.698;2023-04-12T06:35:52;13.00;99.90
70074;DHT22;57445;51.058;3.698;2023-04-12T06:38:20;13.10;99.30
70074;DHT22;57445;51.058;3.698;2023-04-12T06:40:52;12.90;99.00
70074;DHT22;57445;51.058;3.698;2023-04-12T06:43:24;12.90;99.10
70074;DHT22;57445;51.058;3.698;2023-04-12T06:45:58;12.70;99.60
70074;DHT22;57445;51.058;3.698;2023-04-12T06:48:27;12.50;99.60
70074;DHT22;57445;51.058;3.698;2023-04-12T06:51:01;12.20;99.80
70074;DHT22;57445;51.058;3.698;2023-04-12T06:53:28;12.00;99.90
70074;DHT22;57445;51.058;3.698;2023-04-12T06:55:57;12.20;99.90
70074;DHT22;57445;51.058;3.698;2023-04-12T06:58:25;12.10;99.90
70074;DHT22;57445;51.058;3.698;2023-04-12T07:00:53;12.20;99.90
70074;DHT22;57445;51.058;3.698;2023-04-12T07:03:26;12.80;99.90
70074;DHT22;57445;51.058;3.698;2023-04-12T07:05:56;12.90;99.20
70074;DHT22;57445;51.058;3.698;2023-04-12T07:08:25;13.10;98.60
70074;DHT22;57445;51.058;3.698;2023-04-12T07:10:52;13.20;98.20
70074;DHT22;57445;51.058;3.698;2023-04-12T07:13:20;13.10;97.70
70074;DHT22;57445;51.058;3.698;2023-04-12T07:15:48;12.70;98.30
70074;DHT22;57445;51.058;3.698;2023-04-12T07:18:20;12.60;98.60
70074;DHT22;57445;51.058;3.698;2023-04-12T07:20:51;12.50;97.90
70074;DHT22;57445;51.058;3.698;2023-04-12T07:23:22;12.40;98.60
70074;DHT22;57445;51.058;3.698;2023-04-12T07:25:57;12.30;98.70
70074;DHT22;57445;51.058;3.698;2023-04-12T07:28:26;12.40;98.80
70074;DHT22;57445;51.058;3.698;2023-04-12T07:30:58;12.60;98.30
70074;DHT22;57445;51.058;3.698;2023-04-12T07:33:26;12.90;98.20
70074;DHT22;57445;51.058;3.698;2023-04-12T07:35:59;13.10;97.90
70074;DHT22;57445;51.058;3.698;2023-04-12T07:38:32;13.10;97.30
70074;DHT22;57445;51.058;3.698;2023-04-12T07:41:04;13.20;97.30
70074;DHT22;57445;51.058;3.698;2023-04-12T07:43:36;13.40;96.80
70074;DHT22;57445;51.058;3.698;2023-04-12T07:46:03;13.00;96.40
70074;DHT22;57445;51.058;3.698;2023-04-12T07:48:33;13.10;96.80
70074;DHT22;57445;51.058;3.698;2023-04-12T07:51:07;13.30;96.60
70074;DHT22;57445;51.058;3.698;2023-04-12T07:53:35;13.50;95.80
70074;DHT22;57445;51.058;3.698;2023-04-12T07:56:07;13.30;96.20
70074;DHT22;57445;51.058;3.698;2023-04-12T07:58:35;13.40;96.00
70074;DHT22;57445;51.058;3.698;2023-04-12T08:01:04;13.50;95.70
70074;DHT22;57445;51.058;3.698;2023-04-12T08:03:32;13.80;95.60
70074;DHT22;57445;51.058;3.698;2023-04-12T08:06:00;14.00;95.10
70074;DHT22;57445;51.058;3.698;2023-04-12T08:08:28;14.20;94.80
70074;DHT22;57445;51.058;3.698;2023-04-12T08:11:01;14.40;94.60
70074;DHT22;57445;51.058;3.698;2023-04-12T08:13:31;14.40;94.80
70074;DHT22;57445;51.058;3.698;2023-04-12T08:16:03;14.30;94.50
70074;DHT22;57445;51.058;3.698;2023-04-12T08:18:36;14.20;94.80
70074;DHT22;57445;51.058;3.698;2023-04-12T08:21:08;13.90;94.80
70074;DHT22;57445;51.058;3.698;2023-04-12T08:23:37;13.80;95.20
70074;DHT22;57445;51.058;3.698;2023-04-12T08:26:04;13.90;95.50
70074;DHT22;57445;51.058;3.698;2023-04-12T08:28:32;14.10;94.70
70074;DHT22;57445;51.058;3.698;2023-04-12T08:31:07;14.00;94.40
70074;DHT22;57445;51.058;3.698;2023-04-12T08:33:35;13.50;95.00
70074;DHT22;57445;51.058;3.698;2023-04-12T08:36:02;13.60;95.60
70074;DHT22;57445;51.058;3.698;2023-04-12T08:38:30;13.80;95.10
70074;DHT22;57445;51.058;3.698;2023-04-12T08:41:00;13.80;94.60
70074;DHT22;57445;51.058;3.698;2023-04-12T08:43:30;13.70;94.80
70074;DHT22;57445;51.058;3.698;2023-04-12T08:45:59;13.90;94.70
70074;DHT22;57445;51.058;3.698;2023-04-12T08:48:28;13.80;94.30
70074;DHT22;57445;51.058;3.698;2023-04-12T08:51:00;13.80;94.00
70074;DHT22;57445;51.058;3.698;2023-04-12T08:53:27;14.10;93.80
70074;DHT22;57445;51.058;3.698;2023-04-12T08:56:04;14.20;93.50
70074;DHT22;57445;51.058;3.698;2023-04-12T08:58:36;13.90;93.50
70074;DHT22;57445;51.058;3.698;2023-04-12T09:01:06;13.60;94.00
70074;DHT22;57445;51.058;3.698;2023-04-12T09:03:41;13.60;94.20
70074;DHT22;57445;51.058;3.698;2023-04-12T09:06:09;13.80;94.20
70074;DHT22;57445;51.058;3.698;2023-04-12T09:08:51;13.80;93.80
70074;DHT22;57445;51.058;3.698;2023-04-12T09:11:24;14.10;94.20
70074;DHT22;57445;51.058;3.698;2023-04-12T09:13:57;14.60;93.00
70074;DHT22;57445;51.058;3.698;2023-04-12T09:16:34;14.70;92.90
70074;DHT22;57445;51.058;3.698;2023-04-12T09:19:06;14.80;92.00
70074;DHT22;57445;51.058;3.698;2023-04-12T09:21:35;14.30;92.20
70074;DHT22;57445;51.058;3.698;2023-04-12T09:24:10;14.00;93.30
70074;DHT22;57445;51.058;3.698;2023-04-12T09:26:40;14.10;93.20
70074;DHT22;57445;51.058;3.698;2023-04-12T09:29:20;14.20;93.50
70074;DHT22;57445;51.058;3.698;2023-04-12T09:31:53;14.10;93.30
70074;DHT22;57445;51.058;3.698;2023-04-12T09:34:22;14.50;93.20
70074;DHT22;57445;51.058;3.698;2023-04-12T09:36:50;14.90;92.30
70074;DHT22;57445;51.058;3.698;2023-04-12T09:39:29;14.90;91.30
70074;DHT22;57445;51.058;3.698;2023-04-12T09:42:04;15.00;91.40
70074;DHT22;57445;51.058;3.698;2023-04-12T09:44:35;14.90;91.70
70074;DHT22;57445;51.058;3.698;2023-04-12T09:47:03;14.90;92.10
70074;DHT22;57445;51.058;3.698;2023-04-12T09:49:37;15.00;90.50
70074;DHT22;57445;51.058;3.698;2023-04-12T09:52:10;15.30;90.10
70074;DHT22;57445;51.058;3.698;2023-04-12T09:54:41;15.20;89.00
70074;DHT22;57445;51.058;3.698;2023-04-12T09:57:10;15.20;88.50
70074;DHT22;57445;51.058;3.698;2023-04-12T09:59:39;15.00;88.10
70074;DHT22;57445;51.058;3.698;2023-04-12T10:02:09;14.60;88.90
70074;DHT22;57445;51.058;3.698;2023-04-12T10:04:38;14.80;90.00
70074;DHT22;57445;51.058;3.698;2023-04-12T10:07:10;14.90;90.20
70074;DHT22;57445;51.058;3.698;2023-04-12T10:09:38;15.00;87.30
70074;DHT22;57445;51.058;3.698;2023-04-12T10:12:07;14.70;83.90
70074;DHT22;57445;51.058;3.698;2023-04-12T10:14:36;14.70;82.80
70074;DHT22;57445;51.058;3.698;2023-04-12T10:17:06;14.80;83.70
70074;DHT22;57445;51.058;3.698;2023-04-12T10:19:36;14.70;83.00
70074;DHT22;57445;51.058;3.698;2023-04-12T10:22:04;14.40;83.70
70074;DHT22;57445;51.058;3.698;2023-04-12T10:24:31;14.50;84.80
70074;DHT22;57445;51.058;3.698;2023-04-12T10:27:01;14.30;84.10
70074;DHT22;57445;51.058;3.698;2023-04-12T10:29:34;14.40;84.10
70074;DHT22;57445;51.058;3.698;2023-04-12T10:32:18;14.30;82.00
70074;DHT22;57445;51.058;3.698;2023-04-12T10:34:51;14.10;82.10
70074;DHT22;57445;51.058;3.698;2023-04-12T10:37:18;14.00;81.10
70074;DHT22;57445;51.058;3.698;2023-04-12T10:39:50;14.10;81.30
70074;DHT22;57445;51.058;3.698;2023-04-12T10:42:23;13.80;86.00
70074;DHT22;57445;51.058;3.698;2023-04-12T10:44:55;13.40;90.50
70074;DHT22;57445;51.058;3.698;2023-04-12T10:53:25;12.50;95.00
70074;DHT22;57445;51.058;3.698;2023-04-12T10:55:53;12.60;94.50
70074;DHT22;57445;51.058;3.698;2023-04-12T11:01:11;12.80;92.80
70074;DHT22;57445;51.058;3.698;2023-04-12T11:06:38;12.90;93.90
70074;DHT22;57445;51.058;3.698;2023-04-12T11:09:07;12.80;93.90
70074;DHT22;57445;51.058;3.698;2023-04-12T11:11:47;12.60;93.90
70074;DHT22;57445;51.058;3.698;2023-04-12T11:14:24;12.60;94.20
70074;DHT22;57445;51.058;3.698;2023-04-12T11:17:18;12.90;94.00
70074;DHT22;57445;51.058;3.698;2023-04-12T11:19:48;13.10;93.80
70074;DHT22;57445;51.058;3.698;2023-04-12T11:22:16;13.30;93.70
70074;DHT22;57445;51.058;3.698;2023-04-12T11:24:47;13.60;93.20
70074;DHT22;57445;51.058;3.698;2023-04-12T11:27:14;14.00;92.80
70074;DHT22;57445;51.058;3.698;2023-04-12T11:29:43;13.90;92.30
70074;DHT22;57445;51.058;3.698;2023-04-12T11:32:11;13.90;91.20
70074;DHT22;57445;51.058;3.698;2023-04-12T11:34:40;13.70;91.20
70074;DHT22;57445;51.058;3.698;2023-04-12T11:37:08;13.80;91.80
70074;DHT22;57445;51.058;3.698;2023-04-12T11:39:37;13.90;92.20
70074;DHT22;57445;51.058;3.698;2023-04-12T11:42:07;13.90;92.10
70074;DHT22;57445;51.058;3.698;2023-04-12T11:44:43;13.90;91.00
70074;DHT22;57445;51.058;3.698;2023-04-12T11:47:14;14.10;91.60
70074;DHT22;57445;51.058;3.698;2023-04-12T11:49:47;14.10;90.80
70074;DHT22;57445;51.058;3.698;2023-04-12T11:52:16;14.00;90.60
70074;DHT22;57445;51.058;3.698;2023-04-12T11:54:44;14.10;90.50
70074;DHT22;57445;51.058;3.698;2023-04-12T11:57:15;13.90;90.30
70074;DHT22;57445;51.058;3.698;2023-04-12T11:59:51;13.70;90.70
70074;DHT22;57445;51.058;3.698;2023-04-12T12:02:18;13.90;90.90
70074;DHT22;57445;51.058;3.698;2023-04-12T12:04:47;14.30;89.00
70074;DHT22;57445;51.058;3.698;2023-04-12T12:07:19;14.40;88.10
70074;DHT22;57445;51.058;3.698;2023-04-12T12:09:47;14.50;88.20
70074;DHT22;57445;51.058;3.698;2023-04-12T12:12:22;14.50;88.60
70074;DHT22;57445;51.058;3.698;2023-04-12T12:14:50;14.20;89.10
70074;DHT22;57445;51.058;3.698;2023-04-12T12:17:17;14.00;88.00
70074;DHT22;57445;51.058;3.698;2023-04-12T12:19:55;14.00;90.00
70074;DHT22;57445;51.058;3.698;2023-04-12T12:22:22;13.90;91.70
70074;DHT22;57445;51.058;3.698;2023-04-12T12:24:55;13.50;93.40
70074;DHT22;57445;51.058;3.698;2023-04-12T12:27:32;13.90;94.70
70074;DHT22;57445;51.058;3.698;2023-04-12T12:30:00;14.10;93.70
70074;DHT22;57445;51.058;3.698;2023-04-12T12:32:30;13.90;93.20
70074;DHT22;57445;51.058;3.698;2023-04-12T12:34:59;13.30;95.20
70074;DHT22;57445;51.058;3.698;2023-04-12T12:37:28;13.00;94.80
70074;DHT22;57445;51.058;3.698;2023-04-12T12:40:03;12.40;93.90
70074;DHT22;57445;51.058;3.698;2023-04-12T12:42:48;12.00;94.70
70074;DHT22;57445;51.058;3.698;2023-04-12T12:45:17;12.20;94.90
70074;DHT22;57445;51.058;3.698;2023-04-12T12:47:49;12.40;94.50
70074;DHT22;57445;51.058;3.698;2023-04-12T12:50:17;12.50;93.90
70074;DHT22;57445;51.058;3.698;2023-04-12T12:52:45;12.40;94.50
70074;DHT22;57445;51.058;3.698;2023-04-12T12:55:13;12.40;94.50
70074;DHT22;57445;51.058;3.698;2023-04-12T12:57:41;12.40;95.40
70074;DHT22;57445;51.058;3.698;2023-04-12T13:00:11;12.70;94.60
70074;DHT22;57445;51.058;3.698;2023-04-12T13:02:40;12.90;94.40
70074;DHT22;57445;51.058;3.698;2023-04-12T13:05:08;13.10;94.00
70074;DHT22;57445;51.058;3.698;2023-04-12T13:07:35;13.20;94.40
70074;DHT22;57445;51.058;3.698;2023-04-12T13:10:04;13.60;93.30
70074;DHT22;57445;51.058;3.698;2023-04-12T13:12:37;13.70;91.20
70074;DHT22;57445;51.058;3.698;2023-04-12T13:15:05;14.10;91.40
70074;DHT22;57445;51.058;3.698;2023-04-12T13:17:34;14.20;91.00
70074;DHT22;57445;51.058;3.698;2023-04-12T13:20:08;14.40;90.30
70074;DHT22;57445;51.058;3.698;2023-04-12T13:22:37;14.50;86.40
70074;DHT22;57445;51.058;3.698;2023-04-12T13:25:05;14.40;86.40
70074;DHT22;57445;51.058;3.698;2023-04-12T13:27:33;14.20;86.80
70074;DHT22;57445;51.058;3.698;2023-04-12T13:30:00;14.00;88.50
70074;DHT22;57445;51.058;3.698;2023-04-12T13:32:28;14.10;89.10
70074;DHT22;57445;51.058;3.698;2023-04-12T13:34:57;13.90;89.80
70074;DHT22;57445;51.058;3.698;2023-04-12T13:37:25;13.60;90.70
70074;DHT22;57445;51.058;3.698;2023-04-12T13:39:53;13.50;90.10
70074;DHT22;57445;51.058;3.698;2023-04-12T13:42:21;13.70;91.00
70074;DHT22;57445;51.058;3.698;2023-04-12T13:44:50;14.00;91.30
70074;DHT22;57445;51.058;3.698;2023-04-12T13:47:18;14.10;90.10
70074;DHT22;57445;51.058;3.698;2023-04-12T13:49:46;14.30;88.50
70074;DHT22;57445;51.058;3.698;2023-04-12T13:52:19;13.80;89.50
70074;DHT22;57445;51.058;3.698;2023-04-12T13:54:47;13.80;87.50
70074;DHT22;57445;51.058;3.698;2023-04-12T13:57:21;14.00;86.00
70074;DHT22;57445;51.058;3.698;2023-04-12T13:59:48;14.10;83.20
70074;DHT22;57445;51.058;3.698;2023-04-12T14:02:16;14.10;83.40
70074;DHT22;57445;51.058;3.698;2023-04-12T14:04:48;14.10;81.60
70074;DHT22;57445;51.058;3.698;2023-04-12T14:07:16;13.90;82.20
70074;DHT22;57445;51.058;3.698;2023-04-12T14:09:45;14.20;82.30
70074;DHT22;57445;51.058;3.698;2023-04-12T14:12:13;14.70;76.30
70074;DHT22;57445;51.058;3.698;2023-04-12T14:14:41;14.60;75.60
70074;DHT22;57445;51.058;3.698;2023-04-12T14:17:14;14.40;75.80
70074;DHT22;57445;51.058;3.698;2023-04-12T14:19:46;14.00;76.70
70074;DHT22;57445;51.058;3.698;2023-04-12T14:22:14;13.90;76.10
70074;DHT22;57445;51.058;3.698;2023-04-12T14:24:48;13.90;76.50
70074;DHT22;57445;51.058;3.698;2023-04-12T14:27:21;13.80;75.90
70074;DHT22;57445;51.058;3.698;2023-04-12T14:29:49;13.70;76.90
70074;DHT22;57445;51.058;3.698;2023-04-12T14:32:21;13.70;77.00
70074;DHT22;57445;51.058;3.698;2023-04-12T14:34:48;13.80;76.30
70074;DHT22;57445;51.058;3.698;2023-04-12T14:37:16;13.70;75.60
70074;DHT22;57445;51.058;3.698;2023-04-12T14:39:44;13.80;74.90
70074;DHT22;57445;51.058;3.698;2023-04-12T14:42:13;13.80;75.40
70074;DHT22;57445;51.058;3.698;2023-04-12T14:44:41;13.70;76.20
70074;DHT22;57445;51.058;3.698;2023-04-12T14:47:08;13.70;76.40
70074;DHT22;57445;51.058;3.698;2023-04-12T14:49:41;13.70;74.90
70074;DHT22;57445;51.058;3.698;2023-04-12T14:52:20;13.60;73.90
70074;DHT22;57445;51.058;3.698;2023-04-12T14:54:56;13.80;75.20
70074;DHT22;57445;51.058;3.698;2023-04-12T14:57:25;13.60;74.40
70074;DHT22;57445;51.058;3.698;2023-04-12T14:59:57;13.80;75.80
70074;DHT22;57445;51.058;3.698;2023-04-12T15:02:26;13.90;75.90
70074;DHT22;57445;51.058;3.698;2023-04-12T15:04:54;14.00;74.10
70074;DHT22;57445;51.058;3.698;2023-04-12T15:07:28;13.80;74.80
70074;DHT22;57445;51.058;3.698;2023-04-12T15:10:01;13.90;74.60
70074;DHT22;57445;51.058;3.698;2023-04-12T15:12:31;14.30;74.90
70074;DHT22;57445;51.058;3.698;2023-04-12T15:15:00;14.30;73.40
70074;DHT22;57445;51.058;3.698;2023-04-12T15:17:28;14.20;73.10
70074;DHT22;57445;51.058;3.698;2023-04-12T15:19:57;14.10;70.90
70074;DHT22;57445;51.058;3.698;2023-04-12T15:22:24;14.40;69.00
70074;DHT22;57445;51.058;3.698;2023-04-12T15:24:54;14.50;66.80
70074;DHT22;57445;51.058;3.698;2023-04-12T15:27:23;14.60;66.40
70074;DHT22;57445;51.058;3.698;2023-04-12T15:29:52;14.50;65.80
70074;DHT22;57445;51.058;3.698;2023-04-12T15:32:20;14.20;66.50
70074;DHT22;57445;51.058;3.698;2023-04-12T15:34:47;14.20;67.00
70074;DHT22;57445;51.058;3.698;2023-04-12T15:37:16;14.20;66.80
70074;DHT22;57445;51.058;3.698;2023-04-12T15:39:44;14.30;66.10
70074;DHT22;57445;51.058;3.698;2023-04-12T15:42:16;14.60;65.90
70074;DHT22;57445;51.058;3.698;2023-04-12T15:44:46;14.70;66.00
70074;DHT22;57445;51.058;3.698;2023-04-12T15:47:20;14.70;65.30
70074;DHT22;57445;51.058;3.698;2023-04-12T15:49:54;14.30;66.50
70074;DHT22;57445;51.058;3.698;2023-04-12T15:52:22;14.20;66.60
70074;DHT22;57445;51.058;3.698;2023-04-12T15:54:54;14.30;66.20
70074;DHT22;57445;51.058;3.698;2023-04-12T15:57:26;14.10;65.30
70074;DHT22;57445;51.058;3.698;2023-04-12T15:59:54;13.90;64.90
70074;DHT22;57445;51.058;3.698;2023-04-12T16:02:25;13.80;65.80
70074;DHT22;57445;51.058;3.698;2023-04-12T16:04:54;13.60;65.80